Time;durP1;ratioP1;P1;durP2;ratioP2;P2;SDS_P1;SDS_P2;PMS_P1;PMS_P2;Temp;Humidity;BMP_temperature;BMP_pressure;BME280_temperature;BME280_humidity;BME280_pressure;Samples;Min_cycle;Max_cycle;Signal;HPM_P1;HPM_P2
2023/08/20 00:01:08;;;;;;;12.57;5.93;;;22.70;24.40;;;;;;5051893;28;46609;-65
2023/08/20 00:03:34;;;;;;;9.53;5.10;;;22.60;24.90;;;;;;5052533;28;46557;-67
2023/08/20 00:05:59;;;;;;;9.27;4.90;;;22.50;25.50;;;;;;5054881;28;46427;-66
2023/08/20 00:08:25;;;;;;;12.43;5.77;;;22.50;25.80;;;;;;5054334;28;47230;-65
2023/08/20 00:10:51;;;;;;;14.73;5.03;;;22.50;26.00;;;;;;5054877;28;46406;-66
2023/08/20 00:13:16;;;;;;;9.17;5.33;;;22.50;26.30;;;;;;5052753;28;45803;-66
2023/08/20 00:15:43;;;;;;;11.57;5.90;;;22.40;26.10;;;;;;5054231;28;46652;-66
2023/08/20 00:18:08;;;;;;;14.50;6.00;;;22.40;26.90;;;;;;5052210;28;46422;-67
2023/08/20 00:20:35;;;;;;;12.60;5.90;;;22.40;27.00;;;;;;5055203;28;46458;-67
2023/08/20 00:23:01;;;;;;;17.83;5.90;;;22.30;27.00;;;;;;5054500;28;46579;-66
2023/08/20 00:25:26;;;;;;;11.30;5.80;;;22.20;26.80;;;;;;5056086;28;46478;-66
2023/08/20 00:27:52;;;;;;;7.23;5.03;;;22.20;27.70;;;;;;5052948;28;46579;-67
2023/08/20 00:30:18;;;;;;;11.80;5.33;;;22.10;27.80;;;;;;5055398;28;46696;-66
2023/08/20 00:32:43;;;;;;;11.63;5.03;;;22.00;28.30;;;;;;5058061;28;46441;-65
2023/08/20 00:35:09;;;;;;;9.20;4.87;;;21.90;27.90;;;;;;5048513;28;46537;-65
2023/08/20 00:37:35;;;;;;;21.07;5.60;;;21.50;28.40;;;;;;5058125;28;46727;-66
2023/08/20 00:40:01;;;;;;;13.20;5.57;;;21.80;28.90;;;;;;5056184;28;46472;-65
2023/08/20 00:42:26;;;;;;;8.60;5.30;;;21.70;28.50;;;;;;5057753;28;46592;-67
2023/08/20 00:44:52;;;;;;;13.67;5.37;;;21.70;28.80;;;;;;5057858;28;46023;-66
2023/08/20 00:47:19;;;;;;;12.17;5.37;;;21.60;28.70;;;;;;5056848;28;46818;-67
2023/08/20 00:49:46;;;;;;;12.30;6.20;;;21.40;29.50;;;;;;5056818;28;46343;-67
2023/08/20 00:52:13;;;;;;;14.23;5.97;;;21.40;30.00;;;;;;5055941;28;46514;-67
2023/08/20 00:54:47;;;;;;;18.47;6.07;;;21.30;30.70;;;;;;5055241;28;46936;-67
2023/08/20 00:57:19;;;;;;;17.53;6.30;;;21.20;30.60;;;;;;5056504;28;47072;-65
2023/08/20 00:59:47;;;;;;;16.70;5.60;;;21.10;31.60;;;;;;5056929;28;46391;-67
2023/08/20 01:02:12;;;;;;;13.50;5.50;;;21.00;32.10;;;;;;5055456;28;46418;-67
2023/08/20 01:04:38;;;;;;;13.37;6.63;;;20.90;32.50;;;;;;5056494;28;46474;-66
2023/08/20 01:07:27;;;;;;;18.57;5.70;;;20.90;32.60;;;;;;5055526;28;46289;-66
2023/08/20 01:10:05;;;;;;;14.40;6.20;;;20.80;33.90;;;;;;5057885;28;46550;-66
2023/08/20 01:12:34;;;;;;;14.83;6.03;;;20.80;33.60;;;;;;5056982;28;46584;-65
2023/08/20 01:14:59;;;;;;;23.03;6.90;;;20.70;33.20;;;;;;5055049;28;46405;-66
2023/08/20 01:17:25;;;;;;;10.80;7.03;;;20.70;32.90;;;;;;5058011;28;46410;-66
2023/08/20 01:19:50;;;;;;;12.43;6.23;;;20.70;34.20;;;;;;5057876;28;46418;-68
2023/08/20 01:22:57;;;;;;;9.80;5.83;;;20.70;34.70;;;;;;5058997;28;46536;-68
2023/08/20 01:25:23;;;;;;;13.90;6.80;;;20.70;33.60;;;;;;5031667;28;46418;-66
2023/08/20 01:28:19;;;;;;;11.03;5.87;;;20.70;34.70;;;;;;5054399;28;46688;-65
2023/08/20 01:30:46;;;;;;;13.83;7.17;;;20.60;34.60;;;;;;5056018;28;46499;-67
2023/08/20 01:33:12;;;;;;;14.80;7.10;;;20.70;34.70;;;;;;5057426;28;45875;-68
2023/08/20 01:35:38;;;;;;;16.27;6.33;;;20.60;33.50;;;;;;5056808;28;46454;-66
2023/08/20 01:38:04;;;;;;;12.50;6.57;;;20.60;34.60;;;;;;5055887;28;46713;-67
2023/08/20 01:40:30;;;;;;;11.97;6.50;;;20.60;34.60;;;;;;5058691;28;46418;-67
2023/08/20 01:42:57;;;;;;;10.20;6.40;;;20.50;34.50;;;;;;5057712;28;46460;-66
2023/08/20 01:45:22;;;;;;;12.47;5.70;;;20.40;34.90;;;;;;5057491;28;46005;-68
2023/08/20 01:47:48;;;;;;;12.03;5.40;;;20.30;35.60;;;;;;5057727;28;46386;-69
2023/08/20 01:50:14;;;;;;;14.83;6.40;;;20.10;36.00;;;;;;5054796;28;46418;-66
2023/08/20 01:52:39;;;;;;;12.97;6.63;;;20.10;36.10;;;;;;5057901;28;46394;-68
2023/08/20 01:55:05;;;;;;;15.23;7.40;;;20.10;36.80;;;;;;5052148;28;46067;-65
2023/08/20 01:57:31;;;;;;;10.70;5.70;;;20.00;35.90;;;;;;5057878;28;47518;-67
2023/08/20 01:59:58;;;;;;;9.90;5.80;;;20.00;37.10;;;;;;5053529;28;46399;-65
2023/08/20 02:02:24;;;;;;;9.47;6.17;;;19.90;37.30;;;;;;5057332;28;46439;-65
2023/08/20 02:04:50;;;;;;;11.63;6.43;;;19.90;37.40;;;;;;5056791;28;46422;-68
2023/08/20 02:07:16;;;;;;;15.67;6.07;;;19.90;36.90;;;;;;5050451;28;46523;-67
2023/08/20 02:09:41;;;;;;;10.53;6.10;;;20.00;37.70;;;;;;5056657;28;45840;-66
2023/08/20 02:12:07;;;;;;;12.10;7.20;;;21.20;38.30;;;;;;5053169;28;46518;-67
2023/08/20 02:14:34;;;;;;;15.93;8.47;;;19.90;37.50;;;;;;5056280;28;45890;-66
2023/08/20 02:17:01;;;;;;;13.17;7.07;;;19.90;37.70;;;;;;5055739;28;47076;-64
2023/08/20 02:19:27;;;;;;;17.93;6.97;;;19.90;38.40;;;;;;5057365;28;46477;-66
2023/08/20 02:21:53;;;;;;;16.97;7.03;;;20.00;38.60;;;;;;5055612;28;46360;-65
2023/08/20 02:24:18;;;;;;;12.87;6.70;;;20.00;38.60;;;;;;5056248;28;46491;-66
2023/08/20 02:26:44;;;;;;;14.00;6.83;;;20.00;37.90;;;;;;5055743;28;46436;-66
2023/08/20 02:29:10;;;;;;;12.40;6.93;;;20.00;37.30;;;;;;5052633;28;46550;-66
2023/08/20 02:31:36;;;;;;;12.20;7.20;;;20.00;37.50;;;;;;5054849;28;46470;-66
2023/08/20 02:34:01;;;;;;;10.83;6.33;;;20.00;37.70;;;;;;5055677;28;46575;-66
2023/08/20 02:36:27;;;;;;;15.43;6.40;;;20.00;37.60;;;;;;5055569;28;46402;-66
2023/08/20 02:38:53;;;;;;;8.63;5.13;;;19.90;38.60;;;;;;5056735;28;46464;-64
2023/08/20 02:41:18;;;;;;;22.93;5.87;;;19.60;38.60;;;;;;5056117;28;46685;-68
2023/08/20 02:43:44;;;;;;;13.60;7.00;;;19.40;38.90;;;;;;5056494;28;46482;-67
2023/08/20 02:46:10;;;;;;;11.27;6.60;;;;;;;;;;5050457;28;46414;-68
2023/08/20 02:48:37;;;;;;;10.43;7.17;;;19.20;40.00;;;;;;5056921;28;46539;-68
2023/08/20 02:51:02;;;;;;;10.13;6.03;;;19.20;40.30;;;;;;5055038;28;46384;-68
2023/08/20 02:53:28;;;;;;;12.60;7.53;;;;;;;;;;5054057;28;46422;-68
2023/08/20 02:55:56;;;;;;;12.83;6.50;;;19.10;39.90;;;;;;5052954;28;46979;-67
2023/08/20 02:58:22;;;;;;;14.00;6.67;;;19.10;41.10;;;;;;5054101;28;46372;-68
2023/08/20 03:00:47;;;;;;;13.80;7.43;;;19.10;41.10;;;;;;5052492;28;46333;-68
2023/08/20 03:03:13;;;;;;;15.83;8.03;;;19.10;40.10;;;;;;5052866;28;46465;-68
2023/08/20 03:05:39;;;;;;;9.83;6.40;;;19.10;40.30;;;;;;5054515;28;47596;-68
2023/08/20 03:08:05;;;;;;;16.30;8.07;;;19.10;41.10;;;;;;5053324;28;46175;-68
2023/08/20 03:10:31;;;;;;;19.67;6.73;;;19.10;40.50;;;;;;5056655;28;46398;-69
2023/08/20 03:13:01;;;;;;;13.20;7.33;;;19.10;41.10;;;;;;5053852;28;46466;-69
2023/08/20 03:15:30;;;;;;;8.93;6.40;;;18.90;40.60;;;;;;5055826;28;47059;-67
2023/08/20 03:17:56;;;;;;;12.60;7.90;;;;;;;;;;5054006;28;46400;-69
2023/08/20 03:20:21;;;;;;;16.70;7.13;;;19.00;40.30;;;;;;5056019;28;46570;-68
2023/08/20 03:22:47;;;;;;;14.90;7.10;;;19.00;40.50;;;;;;5056223;28;46783;-68
2023/08/20 03:25:13;;;;;;;10.10;6.13;;;19.00;40.50;;;;;;5051456;28;46506;-68
2023/08/20 03:27:38;;;;;;;14.03;7.80;;;19.00;41.40;;;;;;5054315;28;46494;-66
2023/08/20 03:30:04;;;;;;;10.60;6.10;;;19.00;41.40;;;;;;5053813;28;46486;-69
2023/08/20 03:32:30;;;;;;;13.50;6.70;;;19.00;41.50;;;;;;5055496;28;46403;-68
2023/08/20 03:34:58;;;;;;;10.20;6.73;;;;;;;;;;5053715;28;46418;-68
2023/08/20 03:37:27;;;;;;;13.60;6.33;;;18.70;40.50;;;;;;5054752;28;46449;-68
2023/08/20 03:39:53;;;;;;;10.20;6.80;;;18.70;42.00;;;;;;5056864;28;46769;-68
2023/08/20 03:42:18;;;;;;;8.47;6.20;;;18.60;42.20;;;;;;5052640;28;46501;-68
2023/08/20 03:44:44;;;;;;;14.73;5.70;;;18.50;43.50;;;;;;5056067;28;46509;-70
2023/08/20 03:47:09;;;;;;;15.90;6.73;;;18.50;41.40;;;;;;5052123;28;46708;-67
2023/08/20 03:49:35;;;;;;;13.20;6.80;;;18.50;42.50;;;;;;5053892;28;46339;-67
2023/08/20 03:52:01;;;;;;;9.53;5.77;;;18.40;42.40;;;;;;5052037;28;46757;-68
2023/08/20 03:54:29;;;;;;;17.43;6.83;;;18.40;42.50;;;;;;5054732;28;46475;-68
2023/08/20 03:56:55;;;;;;;12.33;6.03;;;18.40;41.70;;;;;;5053179;28;46483;-68
2023/08/20 03:59:20;;;;;;;11.40;6.63;;;18.40;42.60;;;;;;5053587;28;46400;-68
2023/08/20 04:01:46;;;;;;;10.50;6.30;;;18.40;42.60;;;;;;5053796;28;46531;-69
2023/08/20 04:04:11;;;;;;;12.27;6.40;;;18.40;42.60;;;;;;5054010;28;46386;-67
2023/08/20 04:06:37;;;;;;;13.77;6.27;;;18.40;41.50;;;;;;5057518;28;46912;-67
2023/08/20 04:09:03;;;;;;;9.97;6.80;;;18.40;42.40;;;;;;5057693;28;46494;-68
2023/08/20 04:11:29;;;;;;;9.10;6.33;;;18.40;42.30;;;;;;5058856;28;46474;-68
2023/08/20 04:13:54;;;;;;;19.40;7.83;;;18.40;42.20;;;;;;5058211;28;46549;-67
2023/08/20 04:16:20;;;;;;;13.50;7.70;;;18.50;41.20;;;;;;5057906;28;46525;-67
2023/08/20 04:18:45;;;;;;;16.33;7.07;;;18.50;42.00;;;;;;5058057;28;46410;-69
2023/08/20 04:21:11;;;;;;;9.87;6.03;;;18.50;41.80;;;;;;5055894;28;46415;-69
2023/08/20 04:23:36;;;;;;;12.33;6.00;;;18.50;41.90;;;;;;5056364;28;46795;-69
2023/08/20 04:26:02;;;;;;;10.70;6.53;;;18.50;41.10;;;;;;5056054;28;46146;-68
2023/08/20 04:28:28;;;;;;;12.60;6.80;;;18.50;42.00;;;;;;5056078;28;46495;-68
2023/08/20 04:30:54;;;;;;;15.00;8.00;;;18.50;42.00;;;;;;5056477;28;45924;-69
2023/08/20 04:33:20;;;;;;;11.00;7.90;;;18.50;42.00;;;;;;5055180;28;47207;-68
2023/08/20 04:35:46;;;;;;;15.43;7.90;;;18.70;41.10;;;;;;5055506;28;46233;-70
2023/08/20 04:38:11;;;;;;;16.50;7.10;;;18.70;42.10;;;;;;5056869;28;46748;-68
2023/08/20 04:40:37;;;;;;;10.70;7.50;;;18.80;41.90;;;;;;5054097;28;46414;-69
2023/08/20 04:43:03;;;;;;;12.63;7.97;;;18.90;41.90;;;;;;5056631;28;46739;-68
2023/08/20 04:45:28;;;;;;;13.63;7.13;;;19.00;40.70;;;;;;5057924;28;46405;-68
2023/08/20 04:47:54;;;;;;;12.30;7.30;;;19.00;41.60;;;;;;5056521;28;46529;-68
2023/08/20 04:50:21;;;;;;;9.50;7.00;;;19.10;41.50;;;;;;5054237;28;46442;-68
2023/08/20 04:52:46;;;;;;;14.27;7.87;;;19.20;41.20;;;;;;5073271;28;48305;-68
2023/08/20 04:55:12;;;;;;;18.00;7.43;;;19.20;39.90;;;;;;5055941;28;46406;-68
2023/08/20 04:57:38;;;;;;;10.40;6.33;;;19.30;40.90;;;;;;5055929;28;46679;-68
2023/08/20 05:00:04;;;;;;;14.53;6.83;;;19.40;40.70;;;;;;5056630;28;46901;-68
2023/08/20 05:02:29;;;;;;;15.67;6.27;;;19.50;40.50;;;;;;5053733;28;46499;-68
2023/08/20 05:04:55;;;;;;;18.00;6.80;;;19.60;40.30;;;;;;5055911;28;46474;-68
2023/08/20 05:07:21;;;;;;;9.30;6.10;;;19.70;38.90;;;;;;5056146;28;46717;-68
2023/08/20 05:09:46;;;;;;;9.67;6.40;;;19.70;39.60;;;;;;5056256;28;46522;-69
2023/08/20 05:12:12;;;;;;;10.80;6.57;;;19.80;39.50;;;;;;5055576;28;46413;-67
2023/08/20 05:14:37;;;;;;;12.13;6.20;;;19.90;39.30;;;;;;5057216;28;46477;-68
2023/08/20 05:17:03;;;;;;;14.30;6.67;;;19.90;38.10;;;;;;5056017;28;46482;-69
2023/08/20 05:19:29;;;;;;;15.30;6.53;;;19.90;39.40;;;;;;5055376;28;46849;-68
2023/08/20 05:21:58;;;;;;;9.67;7.57;;;19.80;39.60;;;;;;5055770;28;47236;-69
2023/08/20 05:24:24;;;;;;;13.80;6.67;;;20.00;39.80;;;;;;5055509;28;46473;-68
2023/08/20 05:27:09;;;;;;;10.50;6.10;;;21.30;38.00;;;;;;5056711;28;46370;-68
2023/08/20 05:29:36;;;;;;;14.07;5.63;;;22.00;36.80;;;;;;5055691;28;46806;-68
2023/08/20 05:32:01;;;;;;;8.40;6.33;;;22.90;34.90;;;;;;5058176;28;47380;-68
2023/08/20 05:34:27;;;;;;;9.93;5.90;;;23.70;32.50;;;;;;5055340;28;46510;-68
2023/08/20 05:36:52;;;;;;;8.20;5.90;;;24.50;28.80;;;;;;5054798;28;46450;-69
2023/08/20 05:39:18;;;;;;;12.40;5.50;;;24.90;29.00;;;;;;5054646;28;46614;-68
2023/08/20 05:41:44;;;;;;;11.73;5.43;;;25.60;27.00;;;;;;5056974;28;46824;-68
2023/08/20 05:44:10;;;;;;;9.93;5.57;;;26.10;25.90;;;;;;5056517;28;46475;-68
2023/08/20 05:46:35;;;;;;;10.73;5.87;;;26.70;22.70;;;;;;5053787;28;46442;-67
2023/08/20 05:49:01;;;;;;;9.60;6.20;;;26.90;23.10;;;;;;5057026;28;46634;-69
2023/08/20 05:51:26;;;;;;;12.30;5.80;;;27.50;21.40;;;;;;5054372;28;48134;-67
2023/08/20 05:53:52;;;;;;;9.17;5.70;;;27.90;19.80;;;;;;5054155;28;46491;-68
2023/08/20 05:56:18;;;;;;;8.97;6.10;;;28.50;15.90;;;;;;5057039;28;46523;-67
2023/08/20 05:58:44;;;;;;;8.03;4.90;;;28.70;16.90;;;;;;5039992;28;46817;-67
2023/08/20 06:01:10;;;;;;;11.87;6.07;;;29.10;14.70;;;;;;5054158;28;46120;-67
2023/08/20 06:03:35;;;;;;;16.07;5.80;;;29.40;13.00;;;;;;5056426;28;46345;-68
2023/08/20 06:06:02;;;;;;;10.93;5.30;;;29.80;10.40;;;;;;5054997;28;46785;-67
2023/08/20 06:08:27;;;;;;;9.77;5.67;;;29.80;10.70;;;;;;5051157;28;46714;-71
2023/08/20 06:10:53;;;;;;;15.30;5.00;;;30.00;9.70;;;;;;5046330;28;46421;-67
2023/08/20 06:13:19;;;;;;;12.03;5.07;;;30.50;7.60;;;;;;5045254;22;46543;-64
2023/08/20 06:15:44;;;;;;;10.73;5.17;;;31.00;6.70;;;;;;4991783;28;46885;-66
2023/08/20 06:18:10;;;;;;;11.50;5.13;;;31.10;6.70;;;;;;5007283;28;46635;-64
2023/08/20 06:20:35;;;;;;;11.87;5.67;;;31.30;6.80;;;;;;5007711;28;46420;-66
2023/08/20 06:23:01;;;;;;;7.77;5.47;;;31.40;6.80;;;;;;5007651;28;46554;-64
2023/08/20 06:25:27;;;;;;;15.83;5.53;;;31.50;5.60;;;;;;5007810;28;46367;-64
2023/08/20 06:27:52;;;;;;;7.47;5.13;;;31.40;5.90;;;;;;5005488;28;46423;-66
2023/08/20 06:30:18;;;;;;;18.53;5.70;;;31.30;5.70;;;;;;5005504;28;47191;-67
2023/08/20 06:32:46;;;;;;;12.73;5.73;;;31.00;5.50;;;;;;5011131;28;46634;-66
2023/08/20 06:35:12;;;;;;;17.63;6.17;;;28.90;8.80;;;;;;5008872;28;46839;-65
2023/08/20 06:37:41;;;;;;;16.07;6.23;;;28.90;9.70;;;;;;4994172;28;46333;-65
2023/08/20 06:40:07;;;;;;;14.40;6.90;;;28.20;11.30;;;;;;5006498;28;48044;-66
2023/08/20 06:42:33;;;;;;;12.37;5.63;;;27.70;12.40;;;;;;5007912;28;46358;-66
2023/08/20 06:44:59;;;;;;;13.27;6.00;;;28.30;10.00;;;;;;5008298;28;46351;-66
2023/08/20 06:47:25;;;;;;;13.00;5.80;;;29.30;6.20;;;;;;5006112;28;46810;-65
2023/08/20 06:49:51;;;;;;;12.40;5.70;;;30.00;6.10;;;;;;5008139;28;47193;-66
2023/08/20 06:52:17;;;;;;;10.97;5.57;;;30.50;4.30;;;;;;5006420;28;46798;-66
2023/08/20 06:54:44;;;;;;;8.00;5.30;;;29.80;6.10;;;;;;5007674;28;46862;-68
2023/08/20 06:57:09;;;;;;;10.63;6.00;;;28.70;7.90;;;;;;5011145;28;46698;-67
2023/08/20 06:59:35;;;;;;;14.50;6.17;;;28.40;10.60;;;;;;5010882;28;46390;-66
2023/08/20 07:02:00;;;;;;;7.13;5.13;;;27.70;11.60;;;;;;5009261;28;46553;-65
2023/08/20 07:04:26;;;;;;;12.03;5.73;;;27.00;12.80;;;;;;5010712;28;46639;-67
2023/08/20 07:06:51;;;;;;;9.63;6.20;;;27.00;12.80;;;;;;5008375;28;46462;-66
2023/08/20 07:09:17;;;;;;;9.43;6.10;;;27.00;13.90;;;;;;5008681;28;46917;-67
2023/08/20 07:11:43;;;;;;;15.00;6.63;;;27.10;14.00;;;;;;5006495;28;45821;-66
2023/08/20 07:14:08;;;;;;;14.00;5.70;;;27.10;14.30;;;;;;5010846;28;46629;-68
2023/08/20 07:16:34;;;;;;;10.60;6.17;;;27.00;13.70;;;;;;5009756;28;46614;-66
2023/08/20 07:19:00;;;;;;;10.90;6.00;;;27.00;14.60;;;;;;5006602;28;46457;-65
2023/08/20 07:21:25;;;;;;;13.60;6.30;;;27.00;14.60;;;;;;5007534;28;46418;-65
2023/08/20 07:23:51;;;;;;;17.50;6.53;;;25.40;13.70;;;;;;5008873;28;46758;-65
2023/08/20 07:26:16;;;;;;;9.33;6.13;;;26.90;13.70;;;;;;5005720;28;46235;-65
2023/08/20 07:28:57;;;;;;;10.87;6.40;;;27.00;14.60;;;;;;5008183;28;47013;-68
2023/08/20 07:31:27;;;;;;;9.87;6.33;;;27.10;14.40;;;;;;5007945;28;46487;-66
2023/08/20 07:33:55;;;;;;;16.50;6.90;;;27.30;14.00;;;;;;5006135;28;46752;-65
2023/08/20 07:36:22;;;;;;;10.30;6.30;;;27.50;12.80;;;;;;5005469;28;46449;-67
2023/08/20 07:38:48;;;;;;;10.60;5.90;;;27.60;12.90;;;;;;5008396;28;47536;-65
2023/08/20 07:41:13;;;;;;;13.43;6.20;;;27.60;13.40;;;;;;5011135;28;46655;-66
2023/08/20 07:43:40;;;;;;;10.10;6.13;;;27.70;13.10;;;;;;5011957;28;46481;-64
2023/08/20 07:46:07;;;;;;;11.40;6.20;;;27.70;12.30;;;;;;5010414;28;46619;-65
2023/08/20 07:48:33;;;;;;;13.73;6.13;;;27.80;13.20;;;;;;5012562;28;46485;-65
2023/08/20 07:50:59;;;;;;;11.63;6.17;;;27.90;12.80;;;;;;5011200;28;46723;-65
2023/08/20 07:53:24;;;;;;;10.20;5.80;;;28.00;12.50;;;;;;5008356;28;46455;-66
2023/08/20 07:55:50;;;;;;;14.43;6.10;;;28.10;11.30;;;;;;5009947;28;46445;-65
2023/08/20 07:58:15;;;;;;;16.40;5.50;;;28.10;12.00;;;;;;5010190;28;46460;-67
2023/08/20 08:00:41;;;;;;;10.30;5.63;;;28.20;11.80;;;;;;5013443;28;46409;-66
2023/08/20 08:03:07;;;;;;;16.83;5.97;;;28.40;11.30;;;;;;5012256;28;46430;-65
2023/08/20 08:05:33;;;;;;;12.57;5.27;;;28.60;10.30;;;;;;5008359;28;46421;-65
2023/08/20 08:07:59;;;;;;;11.70;6.37;;;28.60;10.10;;;;;;5011335;28;46536;-67
2023/08/20 08:10:25;;;;;;;10.90;5.73;;;28.70;10.70;;;;;;4971785;28;46469;-64
2023/08/20 08:12:50;;;;;;;9.70;5.40;;;28.80;10.50;;;;;;4997769;28;46618;-65
2023/08/20 08:15:19;;;;;;;13.40;5.73;;;29.00;9.40;;;;;;4984061;28;46464;-62
2023/08/20 08:17:45;;;;;;;8.70;5.20;;;29.00;10.10;;;;;;4997117;28;46834;-66
2023/08/20 08:20:11;;;;;;;11.90;5.73;;;29.20;9.70;;;;;;5014495;28;46482;-64
2023/08/20 08:22:37;;;;;;;10.90;5.93;;;29.40;8.10;;;;;;5035853;22;46777;-64
2023/08/20 08:25:02;;;;;;;11.63;4.90;;;29.40;8.60;;;;;;5027519;28;46580;-65
2023/08/20 08:27:28;;;;;;;10.83;5.60;;;29.30;7.30;;;;;;5025220;28;47674;-66
2023/08/20 08:29:54;;;;;;;11.30;5.20;;;29.40;8.30;;;;;;5040767;28;46457;-68
2023/08/20 08:32:20;;;;;;;8.97;5.50;;;29.40;8.10;;;;;;5042482;28;46598;-64
2023/08/20 08:34:46;;;;;;;13.70;5.37;;;29.40;7.90;;;;;;5022616;28;45930;-65
2023/08/20 08:37:12;;;;;;;13.43;5.53;;;29.20;6.40;;;;;;5041617;28;46310;-65
2023/08/20 08:39:37;;;;;;;10.97;5.30;;;29.40;7.50;;;;;;5042705;28;46132;-68
2023/08/20 08:42:07;;;;;;;8.67;5.50;;;29.50;7.30;;;;;;5042171;28;46380;-69
2023/08/20 08:44:33;;;;;;;8.87;4.90;;;29.70;7.20;;;;;;5032885;28;46747;-66
2023/08/20 08:46:59;;;;;;;12.80;5.00;;;29.90;5.90;;;;;;4999176;28;46413;-69
2023/08/20 08:49:26;;;;;;;10.47;5.17;;;30.00;6.70;;;;;;5026237;28;46519;-68
2023/08/20 08:51:56;;;;;;;12.80;5.27;;;30.10;6.60;;;;;;5037240;28;46353;-69
2023/08/20 08:54:23;;;;;;;13.70;5.07;;;30.20;5.40;;;;;;5041619;28;46723;-68
2023/08/20 08:56:50;;;;;;;8.30;4.47;;;30.30;5.60;;;;;;5035957;22;46480;-69
2023/08/20 08:59:16;;;;;;;10.33;4.60;;;30.30;5.40;;;;;;5063298;28;46486;-71
2023/08/20 09:01:42;;;;;;;15.10;5.20;;;30.40;6.40;;;;;;5062868;28;46186;-68
2023/08/20 09:04:08;;;;;;;10.73;5.63;;;30.30;6.30;;;;;;5062306;28;46687;-67
2023/08/20 09:06:55;;;;;;;11.37;4.50;;;30.40;5.50;;;;;;5059481;28;46404;-69
2023/08/20 09:09:21;;;;;;;9.10;4.40;;;30.40;6.40;;;;;;5052006;28;46459;-68
2023/08/20 09:11:49;;;;;;;9.40;4.27;;;30.50;5.90;;;;;;5060078;28;46631;-65
2023/08/20 09:14:22;;;;;;;9.23;4.63;;;30.60;5.10;;;;;;5066189;28;45817;-69
2023/08/20 09:16:55;;;;;;;20.80;5.07;;;30.70;4.50;;;;;;5051077;28;46299;-69
2023/08/20 09:19:20;;;;;;;12.63;4.30;;;30.80;4.50;;;;;;5034663;28;46721;-66
2023/08/20 09:21:48;;;;;;;9.13;4.90;;;30.90;4.00;;;;;;5057592;28;46471;-65
2023/08/20 09:24:14;;;;;;;9.83;4.87;;;31.10;3.10;;;;;;5062061;28;46466;-67
2023/08/20 09:26:39;;;;;;;10.80;5.00;;;31.10;2.70;;;;;;5055109;28;46581;-66
2023/08/20 09:29:05;;;;;;;10.30;5.10;;;31.20;3.30;;;;;;5062937;28;46467;-66
2023/08/20 09:31:41;;;;;;;11.13;4.90;;;30.60;2.70;;;;;;5064463;28;46694;-69
2023/08/20 09:34:13;;;;;;;8.70;4.53;;;30.60;3.20;;;;;;5060063;28;46481;-65
2023/08/20 09:36:40;;;;;;;12.43;5.10;;;30.60;2.80;;;;;;5047070;28;48030;-65
2023/08/20 09:39:05;;;;;;;9.83;4.70;;;30.60;3.80;;;;;;5060144;28;46494;-67
2023/08/20 09:41:35;;;;;;;13.03;4.60;;;30.80;3.70;;;;;;5061127;28;46716;-65
2023/08/20 09:44:04;;;;;;;13.60;4.40;;;30.90;3.70;;;;;;5066661;28;46555;-65
2023/08/20 09:46:33;;;;;;;16.47;4.90;;;31.00;2.70;;;;;;5058813;28;47551;-67
2023/08/20 09:49:01;;;;;;;10.33;5.07;;;31.10;3.30;;;;;;5061785;28;46566;-67
2023/08/20 09:51:28;;;;;;;11.00;4.70;;;31.20;2.90;;;;;;5058400;28;46495;-66
2023/08/20 09:54:14;;;;;;;8.73;4.60;;;31.30;2.70;;;;;;5064000;28;45987;-70
2023/08/20 09:56:42;;;;;;;7.60;4.83;;;31.40;1.40;;;;;;5063007;28;47288;-67
2023/08/20 09:59:08;;;;;;;7.60;3.90;;;31.40;2.00;;;;;;5067375;28;46468;-66
2023/08/20 10:01:35;;;;;;;17.17;4.40;;;31.40;1.70;;;;;;5053113;27;46535;-68
2023/08/20 10:04:02;;;;;;;13.80;4.13;;;31.50;1.40;;;;;;5057284;28;46513;-68
2023/08/20 10:06:29;;;;;;;7.73;3.60;;;31.70;1.00;;;;;;5050399;28;46682;-70
2023/08/20 10:08:55;;;;;;;13.67;3.80;;;31.80;1.00;;;;;;5057621;28;46272;-68
2023/08/20 10:11:20;;;;;;;6.47;3.63;;;31.80;1.00;;;;;;5058831;28;46504;-67
2023/08/20 10:13:46;;;;;;;12.17;3.47;;;31.90;1.00;;;;;;5045677;28;46237;-68
2023/08/20 10:16:13;;;;;;;8.87;3.80;;;31.90;1.00;;;;;;5053310;28;47380;-69
2023/08/20 10:18:39;;;;;;;7.43;3.30;;;31.80;1.00;;;;;;5057305;28;46766;-70
2023/08/20 10:21:08;;;;;;;9.83;3.30;;;31.80;1.00;;;;;;5061947;27;46531;-69
2023/08/20 10:23:34;;;;;;;9.93;4.03;;;31.80;1.00;;;;;;5058606;28;46729;-70
2023/08/20 10:26:10;;;;;;;7.50;3.47;;;31.70;1.00;;;;;;5061343;28;46394;-69
2023/08/20 10:28:36;;;;;;;9.07;3.10;;;31.90;1.00;;;;;;5053102;28;46520;-69
2023/08/20 10:31:09;;;;;;;8.37;3.07;;;31.80;1.00;;;;;;5060557;27;45815;-69
2023/08/20 10:33:52;;;;;;;6.20;3.20;;;31.80;1.00;;;;;;5059088;28;46408;-65
2023/08/20 10:36:25;;;;;;;8.50;3.63;;;31.90;1.00;;;;;;5056769;28;46600;-66
2023/08/20 10:38:55;;;;;;;13.23;3.10;;;31.80;1.00;;;;;;5052851;28;46542;-66
2023/08/20 10:41:28;;;;;;;7.87;3.50;;;32.00;1.00;;;;;;5049814;28;46862;-66
2023/08/20 10:44:00;;;;;;;16.60;3.90;;;31.90;1.00;;;;;;5058097;28;46351;-66
2023/08/20 10:46:30;;;;;;;6.83;3.47;;;32.10;1.00;;;;;;5058752;28;47403;-66
2023/08/20 10:49:06;;;;;;;7.47;3.27;;;32.20;1.00;;;;;;5052061;28;46481;-65
2023/08/20 10:51:37;;;;;;;7.63;3.10;;;32.20;1.00;;;;;;5052656;28;47034;-65
2023/08/20 10:54:05;;;;;;;10.00;2.90;;;;;;;;;;5056425;28;46630;-66
2023/08/20 10:56:44;;;;;;;10.30;3.80;;;32.20;1.00;;;;;;5054662;27;47188;-65
2023/08/20 10:59:14;;;;;;;11.40;4.13;;;32.30;1.00;;;;;;5059457;28;46731;-66
2023/08/20 11:01:40;;;;;;;8.07;3.70;;;32.30;1.00;;;;;;5047388;28;46400;-65
2023/08/20 11:04:07;;;;;;;9.60;3.33;;;;;;;;;;5053937;28;45941;-66
2023/08/20 11:06:33;;;;;;;7.03;3.30;;;32.40;1.00;;;;;;5054381;28;47478;-64
2023/08/20 11:08:59;;;;;;;8.40;3.30;;;32.40;1.00;;;;;;5057728;28;46450;-66
2023/08/20 11:11:25;;;;;;;13.43;3.50;;;32.40;1.00;;;;;;5062106;28;46495;-67
2023/08/20 11:13:51;;;;;;;8.53;3.47;;;32.50;1.00;;;;;;5061586;27;46539;-67
2023/08/20 11:16:17;;;;;;;10.53;3.50;;;32.60;1.00;;;;;;5064015;28;46699;-66
2023/08/20 11:18:43;;;;;;;10.13;3.00;;;32.60;1.00;;;;;;5050016;28;46669;-66
2023/08/20 11:21:09;;;;;;;10.63;3.27;;;32.70;1.00;;;;;;5048900;28;46132;-69
2023/08/20 11:23:35;;;;;;;7.90;3.17;;;32.80;1.00;;;;;;5040819;28;46649;-64
2023/08/20 11:26:02;;;;;;;5.17;3.10;;;32.70;1.00;;;;;;5046118;27;47277;-65
2023/08/20 11:28:28;;;;;;;8.07;3.00;;;32.70;1.00;;;;;;5050804;28;46415;-64
2023/08/20 11:30:55;;;;;;;8.87;3.67;;;32.70;1.00;;;;;;5058713;28;46513;-66
2023/08/20 11:33:22;;;;;;;4.93;3.13;;;32.70;1.00;;;;;;5056189;28;46563;-65
2023/08/20 11:35:48;;;;;;;10.43;3.30;;;33.40;1.00;;;;;;5057275;27;46774;-66
2023/08/20 11:38:14;;;;;;;9.47;3.17;;;32.60;1.00;;;;;;5057371;28;46418;-66
2023/08/20 11:40:39;;;;;;;6.67;3.07;;;32.50;1.00;;;;;;5053280;28;46520;-66
2023/08/20 11:43:06;;;;;;;6.83;3.03;;;32.50;1.00;;;;;;5056168;28;46453;-67
2023/08/20 11:45:32;;;;;;;16.67;4.20;;;32.60;1.00;;;;;;5055812;28;46666;-65
2023/08/20 11:47:58;;;;;;;11.00;3.73;;;32.60;1.00;;;;;;5052640;28;46618;-64
2023/08/20 11:50:24;;;;;;;8.40;3.27;;;32.70;1.00;;;;;;5056481;28;46567;-65
2023/08/20 11:52:52;;;;;;;8.03;3.73;;;32.70;1.00;;;;;;5057446;28;46555;-66
2023/08/20 11:55:23;;;;;;;6.90;3.20;;;32.70;1.00;;;;;;5055265;27;47167;-66
2023/08/20 11:57:55;;;;;;;7.23;3.93;;;32.80;1.00;;;;;;5052239;28;45884;-65
2023/08/20 12:00:28;;;;;;;13.93;3.73;;;32.80;1.00;;;;;;5054895;28;46510;-67
2023/08/20 12:02:55;;;;;;;10.23;2.93;;;32.90;1.00;;;;;;5056211;28;46351;-66
2023/08/20 12:05:29;;;;;;;8.37;3.03;;;32.80;1.00;;;;;;5049366;28;47058;-67
2023/08/20 12:07:59;;;;;;;6.63;3.37;;;32.70;1.00;;;;;;5066356;27;46498;-66
2023/08/20 12:10:27;;;;;;;10.90;3.80;;;32.70;1.00;;;;;;5058334;28;46565;-67
2023/08/20 12:12:52;;;;;;;6.97;3.20;;;32.70;1.00;;;;;;5056084;28;46017;-66
2023/08/20 12:15:19;;;;;;;9.13;3.27;;;32.80;1.00;;;;;;5051349;28;46501;-69
2023/08/20 12:18:04;;;;;;;10.87;3.20;;;32.80;1.00;;;;;;5052143;28;46622;-67
2023/08/20 12:20:34;;;;;;;11.73;3.20;;;32.80;1.00;;;;;;5058554;28;46391;-67
2023/08/20 12:23:05;;;;;;;5.83;3.70;;;32.80;1.00;;;;;;5053637;28;46619;-67
2023/08/20 12:25:34;;;;;;;8.00;3.33;;;32.80;1.00;;;;;;5055342;28;47153;-66
2023/08/20 12:28:00;;;;;;;10.50;3.20;;;32.80;1.00;;;;;;5056288;28;46520;-66
2023/08/20 12:30:26;;;;;;;6.07;3.37;;;32.80;1.00;;;;;;5059969;27;46713;-66
2023/08/20 12:32:52;;;;;;;6.50;3.00;;;32.80;1.00;;;;;;5055956;28;46650;-67
2023/08/20 12:35:18;;;;;;;5.30;3.00;;;32.80;1.00;;;;;;5061976;28;46353;-66
2023/08/20 12:37:43;;;;;;;11.37;3.50;;;32.90;1.00;;;;;;5057758;28;46664;-66
2023/08/20 12:40:11;;;;;;;6.87;3.20;;;32.90;1.00;;;;;;5059997;28;46513;-67
2023/08/20 12:42:38;;;;;;;6.60;3.17;;;33.00;1.00;;;;;;5055791;28;45879;-67
2023/08/20 12:45:08;;;;;;;7.60;2.97;;;33.00;1.00;;;;;;5056115;28;46529;-67